Terminal Aerodrome Forecast
Issued by NWS

Home | Current Version | Previous Version | Text Only | Print | Product List | Glossary On
Versions: 1 2 3 4 5 6 7 8 9 10 11 12 13 14 15 16 17 18 19 20 21 22 23 24 25 26 27 28
574
FTUS41 KOKX 151726
TAFHPN
TAF
KHPN 151726Z 1518/1618 VRB05KT P6SM VCSH SCT030 BKN050
     FM152100 26005KT 2SM -SN SCT015 OVC025
      TEMPO 1521/1524 1/2SM SN VV007
     FM160100 29005KT P6SM SCT035 BKN070
     FM160400 27008KT P6SM SCT150
     FM160700 27014G20KT P6SM FEW070 FEW250
     FM161500 27017G25KT P6SM SCT040
      AMD NOT SKED=

USA.gov is the U.S. government's official web portal to all federal, state and local government web resources and services.